createdAt,value
2022-09-27T00:01:13.720Z,14.00
2022-09-27T00:03:42.351Z,14.27
2022-09-27T00:06:14.642Z,15.40
2022-09-27T00:08:43.530Z,15.90
2022-09-27T00:11:18.795Z,15.87
2022-09-27T00:13:47.393Z,15.37
2022-09-27T00:16:15.922Z,15.47
2022-09-27T00:18:44.314Z,15.87
2022-09-27T00:21:14.585Z,16.20
2022-09-27T00:23:43.212Z,15.27
2022-09-27T00:26:14.957Z,14.90
2022-09-27T00:28:43.694Z,14.87
2022-09-27T00:31:18.149Z,14.43
2022-09-27T00:33:46.412Z,15.80
2022-09-27T00:36:14.694Z,14.67
2022-09-27T00:38:43.355Z,15.80
2022-09-27T00:41:16.818Z,14.80
2022-09-27T00:43:48.718Z,14.10
2022-09-27T00:46:22.251Z,15.67
2022-09-27T00:49:01.551Z,15.00
2022-09-27T00:51:30.258Z,15.27
2022-09-27T00:53:59.441Z,15.53
2022-09-27T00:56:31.052Z,16.17
2022-09-27T00:59:02.763Z,15.20
2022-09-27T01:01:31.748Z,16.43
2022-09-27T01:04:03.318Z,15.97
2022-09-27T01:06:32.076Z,16.43
2022-09-27T01:09:00.533Z,15.53
2022-09-27T01:11:37.907Z,15.63
2022-09-27T01:14:14.731Z,14.50
2022-09-27T01:16:46.645Z,14.60
2022-09-27T01:19:25.012Z,14.43
2022-09-27T01:21:58.051Z,15.40
2022-09-27T01:24:52.433Z,15.13
2022-09-27T01:27:57.273Z,14.43
2022-09-27T01:30:29.292Z,14.63
2022-09-27T01:33:10.494Z,14.03
2022-09-27T01:35:45.628Z,15.57
2022-09-27T01:38:19.044Z,14.23
2022-09-27T01:40:52.582Z,14.10
2022-09-27T01:43:44.241Z,13.70
2022-09-27T01:46:17.113Z,13.80
2022-09-27T01:49:09.952Z,13.90
2022-09-27T01:51:41.283Z,13.03
2022-09-27T01:54:13.775Z,13.93
2022-09-27T01:57:01.797Z,13.30
2022-09-27T01:59:39.708Z,13.40
2022-09-27T02:02:24.783Z,14.20
2022-09-27T02:05:28.653Z,14.70
2022-09-27T02:08:04.079Z,13.90
2022-09-27T02:10:35.360Z,12.60
2022-09-27T02:13:22.447Z,14.00
2022-09-27T02:16:00.099Z,13.20
2022-09-27T02:18:48.799Z,14.00
2022-09-27T02:21:18.177Z,13.93
2022-09-27T02:23:49.144Z,14.10
2022-09-27T02:26:20.179Z,13.37
2022-09-27T02:28:52.994Z,15.07
2022-09-27T02:31:28.533Z,15.83
2022-09-27T02:34:02.627Z,15.57
2022-09-27T02:36:31.409Z,17.40
2022-09-27T02:39:00.330Z,15.30
2022-09-27T02:41:30.086Z,17.37
2022-09-27T02:44:01.313Z,17.27
2022-09-27T02:46:50.758Z,17.80
2022-09-27T02:49:31.204Z,17.17
2022-09-27T02:52:35.658Z,17.83
2022-09-27T02:55:10.488Z,18.70
2022-09-27T02:58:06.335Z,17.10
2022-09-27T03:00:50.475Z,18.87
2022-09-27T03:03:45.100Z,20.60
2022-09-27T03:06:16.298Z,21.50
2022-09-27T03:08:45.301Z,21.67
2022-09-27T03:11:13.583Z,21.90
2022-09-27T03:14:06.889Z,21.10
2022-09-27T03:16:30.140Z,22.63
2022-09-27T03:19:24.687Z,21.30
2022-09-27T03:22:14.334Z,20.43
2022-09-27T03:24:43.065Z,21.80
2022-09-27T03:27:11.439Z,21.43
2022-09-27T03:29:39.698Z,21.97
2022-09-27T03:32:10.820Z,20.97
2022-09-27T03:35:08.854Z,20.67
2022-09-27T03:37:38.735Z,19.40
2022-09-27T03:40:08.686Z,19.77
2022-09-27T03:42:37.075Z,20.60
2022-09-27T03:45:05.927Z,20.07
2022-09-27T03:47:34.160Z,19.50
2022-09-27T03:50:02.603Z,20.90
2022-09-27T03:52:30.854Z,19.40
2022-09-27T03:55:02.358Z,19.13
2022-09-27T03:57:32.181Z,21.63
2022-09-27T04:00:00.724Z,20.23
2022-09-27T04:02:41.205Z,21.10
2022-09-27T04:05:30.482Z,21.80
2022-09-27T04:08:03.312Z,20.63
2022-09-27T04:10:36.895Z,23.77
2022-09-27T04:13:05.974Z,21.37
2022-09-27T04:15:40.458Z,20.60
2022-09-27T04:18:41.020Z,21.50
2022-09-27T04:21:38.410Z,19.60
2022-09-27T04:24:08.365Z,20.80
2022-09-27T04:26:40.027Z,18.40
2022-09-27T04:29:12.750Z,18.97
2022-09-27T04:31:48.070Z,16.63
2022-09-27T04:35:03.011Z,15.60
2022-09-27T04:37:31.521Z,14.93
2022-09-27T04:40:03.516Z,15.70
2022-09-27T04:42:34.175Z,13.50
2022-09-27T04:45:02.391Z,12.67
2022-09-27T04:47:30.932Z,11.80
2022-09-27T04:49:59.253Z,12.50
2022-09-27T04:52:28.090Z,11.70
2022-09-27T04:54:56.328Z,11.20
2022-09-27T04:57:24.876Z,11.30
2022-09-27T04:59:54.523Z,12.40
2022-09-27T05:02:22.833Z,11.50
2022-09-27T05:05:17.646Z,11.50
2022-09-27T05:07:46.177Z,11.53
2022-09-27T05:10:26.312Z,11.80
2022-09-27T05:12:54.726Z,12.23
2022-09-27T05:15:25.638Z,13.13
2022-09-27T05:18:12.244Z,12.97
2022-09-27T05:20:40.534Z,11.93
2022-09-27T05:23:18.485Z,12.80
2022-09-27T05:25:46.797Z,12.63
2022-09-27T05:28:15.235Z,12.27
2022-09-27T05:30:45.790Z,12.40
2022-09-27T05:33:20.195Z,11.73
2022-09-27T05:35:53.378Z,13.00
2022-09-27T05:38:24.265Z,11.63
2022-09-27T05:40:55.798Z,13.00
2022-09-27T05:43:25.522Z,11.20
2022-09-27T05:45:56.053Z,12.30
2022-09-27T05:48:24.898Z,13.00
2022-09-27T05:51:02.423Z,13.80
2022-09-27T05:53:33.072Z,13.43
2022-09-27T05:56:04.583Z,12.73
2022-09-27T05:59:00.112Z,13.00
2022-09-27T06:01:37.330Z,12.77
2022-09-27T06:04:25.692Z,13.30
2022-09-27T06:07:13.844Z,15.17
2022-09-27T06:09:44.332Z,14.50
2022-09-27T06:12:14.431Z,14.30
2022-09-27T06:14:42.838Z,12.67
2022-09-27T06:17:17.444Z,15.20
2022-09-27T06:19:47.771Z,13.60
2022-09-27T06:22:16.886Z,13.10
2022-09-27T06:25:04.063Z,14.20
2022-09-27T06:27:35.553Z,11.97
2022-09-27T06:30:14.873Z,12.63
2022-09-27T06:32:59.245Z,11.10
2022-09-27T06:35:33.359Z,11.50
2022-09-27T06:38:05.021Z,11.87
2022-09-27T06:40:33.961Z,11.87
2022-09-27T06:43:33.207Z,11.27
2022-09-27T06:46:15.992Z,10.87
2022-09-27T06:49:05.252Z,10.97
2022-09-27T06:51:34.283Z,10.93
2022-09-27T06:54:02.572Z,9.53
2022-09-27T06:56:30.872Z,8.83
2022-09-27T06:59:17.344Z,9.23
2022-09-27T07:01:46.404Z,9.87
2022-09-27T07:04:18.926Z,9.90
2022-09-27T07:06:59.250Z,10.60
2022-09-27T07:09:32.326Z,10.47
2022-09-27T07:12:00.826Z,10.70
2022-09-27T07:14:30.346Z,10.93
2022-09-27T07:16:58.631Z,10.60
2022-09-27T07:19:30.481Z,10.57
2022-09-27T07:21:58.854Z,10.87
2022-09-27T07:24:27.122Z,12.50
2022-09-27T07:26:55.598Z,10.70
2022-09-27T07:29:24.788Z,10.37
2022-09-27T07:31:55.018Z,10.90
2022-09-27T07:34:24.052Z,14.23
2022-09-27T07:36:55.196Z,10.53
2022-09-27T07:39:23.558Z,10.80
2022-09-27T07:41:52.419Z,10.33
2022-09-27T07:44:20.726Z,9.50
2022-09-27T07:47:08.230Z,10.17
2022-09-27T07:50:04.816Z,10.90
2022-09-27T07:52:51.281Z,9.10
2022-09-27T07:55:52.036Z,10.07
2022-09-27T07:58:22.988Z,10.17
2022-09-27T08:00:54.609Z,10.20
2022-09-27T08:03:23.118Z,10.33
2022-09-27T08:05:51.708Z,10.13
2022-09-27T08:08:22.463Z,10.07
2022-09-27T08:10:52.328Z,9.67
2022-09-27T08:13:21.540Z,11.00
2022-09-27T08:15:54.007Z,10.30
2022-09-27T08:18:25.208Z,10.50
2022-09-27T08:20:58.138Z,10.47
2022-09-27T08:23:55.130Z,10.37
2022-09-27T08:26:30.699Z,10.37
2022-09-27T08:29:10.888Z,10.00
2022-09-27T08:31:44.219Z,10.40
2022-09-27T08:34:13.130Z,10.83
2022-09-27T08:36:41.428Z,9.47
2022-09-27T08:39:11.385Z,8.97
2022-09-27T08:41:49.471Z,7.93
2022-09-27T08:44:24.747Z,8.30
2022-09-27T08:47:16.797Z,8.57
2022-09-27T08:49:50.739Z,7.90
2022-09-27T08:52:22.013Z,7.90
2022-09-27T08:54:52.205Z,8.40
2022-09-27T08:57:20.987Z,8.47
2022-09-27T08:59:54.555Z,7.63
2022-09-27T09:02:24.776Z,7.80
2022-09-27T09:04:55.999Z,7.77
2022-09-27T09:07:40.593Z,8.13
2022-09-27T09:10:38.056Z,7.00
2022-09-27T09:13:11.852Z,7.27
2022-09-27T09:15:56.628Z,8.20
2022-09-27T09:18:39.804Z,7.63
2022-09-27T09:21:23.390Z,8.07
2022-09-27T09:24:16.516Z,8.30
2022-09-27T09:26:49.924Z,7.90
2022-09-27T09:29:28.153Z,6.93
2022-09-27T09:32:00.176Z,8.47
2022-09-27T09:34:32.956Z,11.30
2022-09-27T09:37:04.179Z,10.93
2022-09-27T09:39:36.215Z,12.30
2022-09-27T09:42:10.012Z,10.90
2022-09-27T09:44:45.243Z,11.47
2022-09-27T09:47:20.330Z,11.30
2022-09-27T09:49:53.302Z,8.80
2022-09-27T09:52:25.009Z,9.00
2022-09-27T09:54:56.266Z,7.77
2022-09-27T09:57:28.907Z,8.03
2022-09-27T09:59:59.898Z,8.20
2022-09-27T10:02:33.572Z,8.07
2022-09-27T10:05:12.407Z,8.27
2022-09-27T10:07:41.531Z,7.77
2022-09-27T10:10:14.111Z,7.90
2022-09-27T10:12:50.052Z,8.73
2022-09-27T10:15:22.613Z,10.40
2022-09-27T10:17:54.074Z,4.00
2022-09-27T10:20:30.225Z,3.20
2022-09-27T10:23:05.398Z,1.97
2022-09-27T10:25:53.343Z,1.37
2022-09-27T10:28:39.375Z,1.73
2022-09-27T10:31:09.631Z,2.20
2022-09-27T10:33:53.773Z,1.93
2022-09-27T10:36:26.516Z,1.40
2022-09-27T10:38:56.077Z,2.50
2022-09-27T10:41:36.761Z,2.50
2022-09-27T10:44:27.377Z,2.10
2022-09-27T10:47:23.888Z,2.10
2022-09-27T10:50:06.890Z,1.87
2022-09-27T10:53:05.474Z,1.57
2022-09-27T10:55:35.935Z,1.63
2022-09-27T10:58:05.218Z,1.90
2022-09-27T11:00:36.629Z,1.60
2022-09-27T11:03:08.947Z,1.97
2022-09-27T11:05:39.979Z,2.13
2022-09-27T11:08:24.424Z,1.83
2022-09-27T11:11:06.692Z,1.77
2022-09-27T11:13:37.977Z,2.10
2022-09-27T11:16:22.594Z,2.60
2022-09-27T11:19:03.003Z,1.90
2022-09-27T11:21:36.926Z,2.30
2022-09-27T11:24:17.684Z,1.80
2022-09-27T11:26:54.060Z,3.00
2022-09-27T11:29:28.153Z,2.90
2022-09-27T11:32:46.474Z,2.10
2022-09-27T11:35:47.284Z,1.90
2022-09-27T11:38:40.888Z,2.33
2022-09-27T11:41:22.948Z,1.80
2022-09-27T11:44:24.365Z,1.67
2022-09-27T11:47:00.801Z,2.40
2022-09-27T11:49:57.581Z,2.27
2022-09-27T11:52:37.822Z,3.00
2022-09-27T11:55:16.688Z,2.27
2022-09-27T11:57:49.997Z,2.07
2022-09-27T12:00:21.726Z,2.80
2022-09-27T12:03:22.291Z,2.33
2022-09-27T12:06:07.268Z,2.70
2022-09-27T12:08:54.642Z,3.00
2022-09-27T12:11:26.673Z,2.70
2022-09-27T12:13:59.110Z,1.90
2022-09-27T12:16:28.617Z,1.87
2022-09-27T12:18:57.588Z,2.00
2022-09-27T12:21:47.559Z,3.00
2022-09-27T12:24:21.284Z,2.60
2022-09-27T12:27:11.853Z,3.47
2022-09-27T12:29:41.952Z,3.63
2022-09-27T12:32:15.293Z,3.40
2022-09-27T12:34:47.171Z,3.10
2022-09-27T12:37:20.988Z,3.23
2022-09-27T12:39:53.241Z,3.13
2022-09-27T12:42:27.467Z,2.80
2022-09-27T12:45:01.113Z,2.90
2022-09-27T12:47:38.196Z,3.80
2022-09-27T12:50:17.085Z,3.77
2022-09-27T12:52:51.130Z,3.90
2022-09-27T12:55:44.142Z,4.70
2022-09-27T12:58:49.600Z,3.90
2022-09-27T13:01:29.161Z,4.40
2022-09-27T13:04:15.881Z,4.40
2022-09-27T13:06:59.482Z,3.80
2022-09-27T13:09:51.356Z,3.80
2022-09-27T13:12:22.127Z,4.60
2022-09-27T13:14:58.831Z,4.20
2022-09-27T13:17:50.110Z,4.00
2022-09-27T13:20:44.415Z,4.23
2022-09-27T13:23:51.550Z,4.17
2022-09-27T13:26:44.529Z,4.63
2022-09-27T13:29:29.534Z,4.07
2022-09-27T13:32:23.688Z,4.07
2022-09-27T13:35:21.789Z,4.07
2022-09-27T13:37:59.559Z,4.90
2022-09-27T13:40:45.500Z,4.43
2022-09-27T13:43:41.661Z,5.23
2022-09-27T13:46:30.977Z,4.20
2022-09-27T13:49:04.840Z,3.87
2022-09-27T13:52:20.870Z,3.77
2022-09-27T13:54:59.188Z,4.13
2022-09-27T13:57:43.414Z,4.13
2022-09-27T14:00:19.895Z,3.97
2022-09-27T14:03:07.355Z,3.80
2022-09-27T14:05:40.846Z,3.13
2022-09-27T14:08:21.369Z,3.83
2022-09-27T14:10:50.763Z,4.27
2022-09-27T14:13:21.498Z,3.87
2022-09-27T14:16:03.073Z,3.77
2022-09-27T14:18:31.673Z,5.10
2022-09-27T14:21:13.269Z,4.83
2022-09-27T14:24:24.900Z,4.10
2022-09-27T14:27:11.564Z,3.27
2022-09-27T14:29:44.927Z,5.77
2022-09-27T14:32:18.859Z,3.77
2022-09-27T14:35:06.368Z,3.43
2022-09-27T14:37:36.453Z,2.63
2022-09-27T14:40:20.449Z,3.00
2022-09-27T14:42:49.583Z,2.50
2022-09-27T14:45:22.925Z,2.43
2022-09-27T14:47:52.851Z,2.13
2022-09-27T14:50:23.876Z,2.70
2022-09-27T14:52:55.839Z,2.30
2022-09-27T14:55:25.688Z,2.57
2022-09-27T14:57:55.573Z,2.70
2022-09-27T15:00:26.604Z,2.47
2022-09-27T15:02:59.125Z,2.33
2022-09-27T15:05:29.646Z,2.90
2022-09-27T15:07:59.565Z,2.60
2022-09-27T15:10:31.472Z,3.00
2022-09-27T15:13:01.580Z,2.70
2022-09-27T15:15:32.797Z,3.07
2022-09-27T15:18:03.630Z,3.07
2022-09-27T15:20:35.131Z,3.33
2022-09-27T15:23:06.587Z,2.93
2022-09-27T15:25:36.772Z,2.80
2022-09-27T15:28:06.922Z,2.50
2022-09-27T15:30:36.870Z,3.07
2022-09-27T15:33:07.420Z,2.93
2022-09-27T15:35:36.821Z,3.20
2022-09-27T15:38:32.740Z,3.60
2022-09-27T15:41:05.564Z,3.03
2022-09-27T15:43:37.161Z,2.87
2022-09-27T15:46:09.753Z,3.37
2022-09-27T15:48:42.208Z,3.60
2022-09-27T15:51:40.819Z,3.20
2022-09-27T15:54:09.675Z,3.73
2022-09-27T15:56:40.479Z,2.83
2022-09-27T15:59:14.406Z,3.17
2022-09-27T16:01:43.118Z,3.17
2022-09-27T16:04:13.024Z,3.83
2022-09-27T16:06:42.899Z,3.40
2022-09-27T16:09:17.861Z,4.17
2022-09-27T16:11:46.752Z,4.23
2022-09-27T16:14:18.441Z,4.20
2022-09-27T16:16:50.256Z,3.73
2022-09-27T16:19:23.395Z,3.70
2022-09-27T16:21:52.540Z,3.50
2022-09-27T16:24:21.470Z,3.70
2022-09-27T16:26:51.020Z,3.30
2022-09-27T16:29:21.911Z,3.50
2022-09-27T16:31:53.892Z,4.37
2022-09-27T16:34:26.588Z,4.77
2022-09-27T16:36:55.786Z,3.93
2022-09-27T16:39:24.334Z,4.00
2022-09-27T16:41:54.803Z,3.30
2022-09-27T16:44:23.274Z,3.60
2022-09-27T16:46:51.793Z,3.40
2022-09-27T16:49:37.417Z,4.80
2022-09-27T16:52:07.233Z,3.90
2022-09-27T16:54:35.604Z,4.10
2022-09-27T16:57:05.078Z,4.20
2022-09-27T16:59:33.583Z,5.07
2022-09-27T17:02:02.217Z,6.20
2022-09-27T17:04:30.725Z,5.10
2022-09-27T17:06:59.552Z,6.57
2022-09-27T17:09:29.323Z,6.50
2022-09-27T17:11:57.706Z,6.20
2022-09-27T17:14:27.256Z,6.50
2022-09-27T17:16:55.511Z,6.23
2022-09-27T17:19:24.058Z,5.07
2022-09-27T17:21:53.008Z,5.57
2022-09-27T17:24:21.700Z,4.90
2022-09-27T17:26:52.505Z,5.30
2022-09-27T17:29:21.220Z,4.80
2022-09-27T17:31:50.452Z,5.60
2022-09-27T17:34:19.158Z,7.57
2022-09-27T17:36:50.464Z,5.13
2022-09-27T17:39:22.565Z,4.60
2022-09-27T17:41:52.723Z,4.93
2022-09-27T17:44:22.050Z,4.30
2022-09-27T17:47:11.613Z,4.77
2022-09-27T17:49:58.714Z,6.07
2022-09-27T17:52:28.935Z,4.87
2022-09-27T17:54:58.621Z,4.90
2022-09-27T17:57:28.541Z,5.17
2022-09-27T17:59:58.010Z,5.30
2022-09-27T18:02:26.771Z,5.20
2022-09-27T18:04:55.239Z,5.57
2022-09-27T18:07:23.715Z,5.87
2022-09-27T18:09:52.534Z,6.67
2022-09-27T18:12:22.310Z,9.27
2022-09-27T18:14:52.106Z,9.03
2022-09-27T18:17:21.649Z,9.07
2022-09-27T18:19:50.023Z,10.90
2022-09-27T18:22:18.487Z,11.17
2022-09-27T18:24:46.929Z,11.83
2022-09-27T18:27:18.570Z,11.33
2022-09-27T18:29:47.238Z,10.43
2022-09-27T18:32:16.973Z,11.00
2022-09-27T18:34:45.427Z,11.00
2022-09-27T18:37:13.838Z,13.10
2022-09-27T18:39:42.383Z,11.00
2022-09-27T18:42:10.915Z,9.80
2022-09-27T18:44:39.686Z,10.70
2022-09-27T18:47:08.184Z,10.87
2022-09-27T18:49:38.292Z,11.63
2022-09-27T18:52:07.650Z,11.90
2022-09-27T18:54:38.784Z,11.53
2022-09-27T18:57:07.646Z,13.00
2022-09-27T18:59:36.461Z,14.00
2022-09-27T19:02:04.948Z,13.07
2022-09-27T19:04:33.913Z,14.27
2022-09-27T19:07:04.237Z,13.50
2022-09-27T19:09:32.709Z,12.17
2022-09-27T19:12:01.332Z,13.10
2022-09-27T19:14:30.200Z,12.70
2022-09-27T19:16:58.666Z,12.40
2022-09-27T19:19:27.326Z,12.50
2022-09-27T19:21:56.501Z,13.30
2022-09-27T19:24:26.868Z,12.17
2022-09-27T19:26:58.708Z,11.73
2022-09-27T19:29:27.651Z,12.23
2022-09-27T19:31:56.309Z,13.17
2022-09-27T19:34:24.713Z,12.77
2022-09-27T19:36:53.117Z,10.60
2022-09-27T19:39:22.616Z,11.47
2022-09-27T19:41:52.432Z,12.07
2022-09-27T19:44:20.715Z,12.63
2022-09-27T19:46:49.355Z,12.20
2022-09-27T19:49:19.231Z,12.80
2022-09-27T19:51:47.999Z,14.03
2022-09-27T19:54:16.554Z,13.70
2022-09-27T19:56:44.892Z,14.10
2022-09-27T19:59:14.830Z,13.50
2022-09-27T20:01:44.235Z,14.07
2022-09-27T20:04:13.039Z,14.70
2022-09-27T20:06:41.645Z,15.00
2022-09-27T20:09:10.933Z,18.30
2022-09-27T20:11:39.223Z,14.20
2022-09-27T20:14:08.173Z,12.77
2022-09-27T20:16:41.399Z,13.77
2022-09-27T20:19:11.478Z,14.50
2022-09-27T20:21:39.892Z,12.53
2022-09-27T20:24:08.100Z,12.80
2022-09-27T20:26:38.390Z,11.70
2022-09-27T20:29:07.931Z,12.60
2022-09-27T20:31:56.976Z,11.57
2022-09-27T20:34:29.651Z,10.70
2022-09-27T20:36:57.811Z,10.57
2022-09-27T20:39:26.030Z,9.87
2022-09-27T20:41:54.310Z,9.47
2022-09-27T20:44:22.834Z,8.60
2022-09-27T20:46:52.463Z,9.63
2022-09-27T20:49:20.904Z,8.83
2022-09-27T20:51:49.732Z,7.60
2022-09-27T20:54:18.480Z,9.57
2022-09-27T20:56:48.034Z,8.17
2022-09-27T20:59:18.381Z,7.50
2022-09-27T21:01:49.103Z,8.43
2022-09-27T21:04:20.117Z,8.30
2022-09-27T21:06:49.066Z,7.43
2022-09-27T21:09:19.171Z,8.37
2022-09-27T21:11:48.147Z,8.40
2022-09-27T21:14:16.486Z,9.03
2022-09-27T21:16:44.914Z,9.30
2022-09-27T21:19:13.546Z,10.37
2022-09-27T21:21:43.516Z,9.80
2022-09-27T21:24:11.945Z,9.43
2022-09-27T21:26:40.179Z,9.67
2022-09-27T21:29:10.393Z,8.97
2022-09-27T21:31:39.006Z,8.87
2022-09-27T21:34:07.687Z,8.70
2022-09-27T21:36:37.110Z,8.77
2022-09-27T21:39:08.630Z,8.90
2022-09-27T21:41:37.488Z,7.97
2022-09-27T21:44:06.597Z,5.93
2022-09-27T21:46:35.560Z,5.80
2022-09-27T21:49:03.813Z,5.67
2022-09-27T21:51:33.749Z,7.77
2022-09-27T21:54:03.153Z,7.60
2022-09-27T21:56:34.525Z,7.40
2022-09-27T21:59:03.248Z,5.67
2022-09-27T22:01:33.200Z,7.47
2022-09-27T22:04:03.041Z,6.03
2022-09-27T22:06:33.291Z,5.80
2022-09-27T22:09:03.104Z,6.73
2022-09-27T22:11:34.387Z,6.27
2022-09-27T22:14:02.671Z,5.63
2022-09-27T22:16:31.230Z,4.40
2022-09-27T22:19:00.120Z,5.47
2022-09-27T22:21:29.723Z,5.40
2022-09-27T22:24:00.990Z,4.73
2022-09-27T22:26:34.432Z,4.67
2022-09-27T22:29:02.692Z,4.60
2022-09-27T22:31:30.961Z,3.07
2022-09-27T22:34:00.777Z,3.30
2022-09-27T22:36:29.667Z,3.63
2022-09-27T22:38:58.283Z,3.10
2022-09-27T22:41:27.015Z,2.60
2022-09-27T22:43:57.423Z,2.07
2022-09-27T22:46:26.062Z,2.43
2022-09-27T22:48:55.829Z,2.37
2022-09-27T22:51:24.122Z,2.83
2022-09-27T22:53:52.598Z,2.30
2022-09-27T22:56:21.885Z,2.33
2022-09-27T22:58:50.877Z,1.70
2022-09-27T23:01:21.874Z,2.30
2022-09-27T23:03:51.752Z,1.30
2022-09-27T23:06:21.289Z,1.90
2022-09-27T23:08:50.385Z,1.90
2022-09-27T23:11:19.695Z,2.00
2022-09-27T23:13:49.053Z,2.10
2022-09-27T23:16:19.486Z,1.73
2022-09-27T23:18:50.249Z,1.83
2022-09-27T23:21:18.477Z,1.70
2022-09-27T23:23:47.628Z,1.30
2022-09-27T23:26:17.422Z,1.67
2022-09-27T23:28:45.876Z,1.20
2022-09-27T23:31:15.504Z,1.20
2022-09-27T23:33:45.003Z,1.33
2022-09-27T23:36:16.337Z,1.40
2022-09-27T23:38:45.963Z,1.70
2022-09-27T23:41:15.257Z,1.50
2022-09-27T23:43:44.135Z,1.33
2022-09-27T23:46:13.282Z,1.37
2022-09-27T23:48:41.858Z,1.57
2022-09-27T23:51:12.046Z,1.63
2022-09-27T23:53:41.768Z,1.80
2022-09-27T23:56:12.394Z,1.63
2022-09-27T23:58:42.228Z,2.00
